sensor_id;sensor_type;location;lat;lon;timestamp;temperature;humidity
22288;DHT22;11312;51.464;6.968;2023-07-13T00:01:46;17.40;99.90
22288;DHT22;11312;51.464;6.968;2023-07-13T00:04:19;17.40;99.90
22288;DHT22;11312;51.464;6.968;2023-07-13T00:06:46;17.20;99.90
22288;DHT22;11312;51.464;6.968;2023-07-13T00:09:14;17.20;99.90
22288;DHT22;11312;51.464;6.968;2023-07-13T00:11:40;17.20;99.90
22288;DHT22;11312;51.464;6.968;2023-07-13T00:14:06;17.20;99.90
22288;DHT22;11312;51.464;6.968;2023-07-13T00:16:37;17.30;99.90
22288;DHT22;11312;51.464;6.968;2023-07-13T00:19:03;17.30;99.90
22288;DHT22;11312;51.464;6.968;2023-07-13T00:21:29;17.20;99.90
22288;DHT22;11312;51.464;6.968;2023-07-13T00:23:55;17.00;99.90
22288;DHT22;11312;51.464;6.968;2023-07-13T00:26:20;17.00;99.90
22288;DHT22;11312;51.464;6.968;2023-07-13T00:28:46;17.00;99.90
22288;DHT22;11312;51.464;6.968;2023-07-13T00:31:13;16.90;99.90
22288;DHT22;11312;51.464;6.968;2023-07-13T00:33:40;17.00;99.90
22288;DHT22;11312;51.464;6.968;2023-07-13T00:36:06;17.00;99.90
22288;DHT22;11312;51.464;6.968;2023-07-13T00:38:31;16.90;99.90
22288;DHT22;11312;51.464;6.968;2023-07-13T00:40:57;17.00;99.90
22288;DHT22;11312;51.464;6.968;2023-07-13T00:43:25;16.90;99.90
22288;DHT22;11312;51.464;6.968;2023-07-13T00:48:20;16.80;99.90
22288;DHT22;11312;51.464;6.968;2023-07-13T00:50:49;16.80;99.90
22288;DHT22;11312;51.464;6.968;2023-07-13T00:53:16;15.50;99.90
22288;DHT22;11312;51.464;6.968;2023-07-13T00:55:43;16.70;99.90
22288;DHT22;11312;51.464;6.968;2023-07-13T00:58:08;16.60;99.90
22288;DHT22;11312;51.464;6.968;2023-07-13T01:00:38;16.60;99.90
22288;DHT22;11312;51.464;6.968;2023-07-13T01:03:04;16.60;99.90
22288;DHT22;11312;51.464;6.968;2023-07-13T01:05:32;16.70;99.90
22288;DHT22;11312;51.464;6.968;2023-07-13T01:07:59;16.70;99.90
22288;DHT22;11312;51.464;6.968;2023-07-13T01:10:27;16.70;99.90
22288;DHT22;11312;51.464;6.968;2023-07-13T01:12:53;16.60;99.90
22288;DHT22;11312;51.464;6.968;2023-07-13T01:15:37;16.60;99.90
22288;DHT22;11312;51.464;6.968;2023-07-13T01:18:16;16.60;99.90
22288;DHT22;11312;51.464;6.968;2023-07-13T01:23:18;16.60;99.90
22288;DHT22;11312;51.464;6.968;2023-07-13T01:25:44;16.70;99.90
22288;DHT22;11312;51.464;6.968;2023-07-13T01:28:10;16.60;99.90
22288;DHT22;11312;51.464;6.968;2023-07-13T01:30:36;16.50;99.90
22288;DHT22;11312;51.464;6.968;2023-07-13T01:33:03;16.30;99.90
22288;DHT22;11312;51.464;6.968;2023-07-13T01:35:29;16.10;99.90
22288;DHT22;11312;51.464;6.968;2023-07-13T01:37:55;16.00;99.90
22288;DHT22;11312;51.464;6.968;2023-07-13T01:40:22;15.90;99.90
22288;DHT22;11312;51.464;6.968;2023-07-13T01:42:48;16.00;99.90
22288;DHT22;11312;51.464;6.968;2023-07-13T01:45:13;16.10;99.90
22288;DHT22;11312;51.464;6.968;2023-07-13T01:47:40;16.10;99.90
22288;DHT22;11312;51.464;6.968;2023-07-13T01:50:05;16.10;99.90
22288;DHT22;11312;51.464;6.968;2023-07-13T01:52:31;16.10;99.90
22288;DHT22;11312;51.464;6.968;2023-07-13T01:54:57;16.00;99.90
22288;DHT22;11312;51.464;6.968;2023-07-13T01:57:22;15.90;99.90
22288;DHT22;11312;51.464;6.968;2023-07-13T01:59:48;15.90;99.90
22288;DHT22;11312;51.464;6.968;2023-07-13T02:02:14;15.90;99.90
22288;DHT22;11312;51.464;6.968;2023-07-13T02:04:40;15.90;99.90
22288;DHT22;11312;51.464;6.968;2023-07-13T02:07:05;16.00;99.90
22288;DHT22;11312;51.464;6.968;2023-07-13T02:09:31;15.90;99.90
22288;DHT22;11312;51.464;6.968;2023-07-13T02:11:57;15.90;99.90
22288;DHT22;11312;51.464;6.968;2023-07-13T02:14:22;15.70;99.90
22288;DHT22;11312;51.464;6.968;2023-07-13T02:16:48;15.90;99.90
22288;DHT22;11312;51.464;6.968;2023-07-13T02:19:14;15.90;99.90
22288;DHT22;11312;51.464;6.968;2023-07-13T02:21:40;15.80;99.90
22288;DHT22;11312;51.464;6.968;2023-07-13T02:24:06;15.80;99.90
22288;DHT22;11312;51.464;6.968;2023-07-13T02:26:31;15.80;99.90
22288;DHT22;11312;51.464;6.968;2023-07-13T02:28:57;15.70;99.90
22288;DHT22;11312;51.464;6.968;2023-07-13T02:31:22;15.90;99.90
22288;DHT22;11312;51.464;6.968;2023-07-13T02:33:48;15.90;99.90
22288;DHT22;11312;51.464;6.968;2023-07-13T02:36:14;15.90;99.90
22288;DHT22;11312;51.464;6.968;2023-07-13T02:38:41;15.90;99.90
22288;DHT22;11312;51.464;6.968;2023-07-13T02:41:08;15.90;99.90
22288;DHT22;11312;51.464;6.968;2023-07-13T02:43:34;15.80;99.90
22288;DHT22;11312;51.464;6.968;2023-07-13T02:46:01;15.60;99.90
22288;DHT22;11312;51.464;6.968;2023-07-13T02:48:33;15.60;99.90
22288;DHT22;11312;51.464;6.968;2023-07-13T02:50:58;15.60;99.90
22288;DHT22;11312;51.464;6.968;2023-07-13T02:53:24;15.60;99.90
22288;DHT22;11312;51.464;6.968;2023-07-13T02:55:50;15.60;99.90
22288;DHT22;11312;51.464;6.968;2023-07-13T02:58:16;15.50;99.90
22288;DHT22;11312;51.464;6.968;2023-07-13T03:00:42;15.60;99.90
22288;DHT22;11312;51.464;6.968;2023-07-13T03:03:08;15.70;99.90
22288;DHT22;11312;51.464;6.968;2023-07-13T03:05:34;15.70;99.90
22288;DHT22;11312;51.464;6.968;2023-07-13T03:08:00;15.60;99.90
22288;DHT22;11312;51.464;6.968;2023-07-13T03:10:25;15.60;99.90
22288;DHT22;11312;51.464;6.968;2023-07-13T03:12:51;15.60;99.90
22288;DHT22;11312;51.464;6.968;2023-07-13T03:15:16;15.60;99.90
22288;DHT22;11312;51.464;6.968;2023-07-13T03:17:42;15.50;99.90
22288;DHT22;11312;51.464;6.968;2023-07-13T03:20:08;15.40;99.90
22288;DHT22;11312;51.464;6.968;2023-07-13T03:22:33;15.40;99.90
22288;DHT22;11312;51.464;6.968;2023-07-13T03:24:59;15.50;99.90
22288;DHT22;11312;51.464;6.968;2023-07-13T03:27:25;15.50;99.90
22288;DHT22;11312;51.464;6.968;2023-07-13T03:29:50;15.40;99.90
22288;DHT22;11312;51.464;6.968;2023-07-13T03:32:16;15.50;99.90
22288;DHT22;11312;51.464;6.968;2023-07-13T03:34:41;15.50;99.90
22288;DHT22;11312;51.464;6.968;2023-07-13T03:37:07;15.50;99.90
22288;DHT22;11312;51.464;6.968;2023-07-13T03:39:33;15.50;99.90
22288;DHT22;11312;51.464;6.968;2023-07-13T03:41:58;15.40;99.90
22288;DHT22;11312;51.464;6.968;2023-07-13T03:44:24;15.40;99.90
22288;DHT22;11312;51.464;6.968;2023-07-13T03:46:50;15.50;99.90
22288;DHT22;11312;51.464;6.968;2023-07-13T03:49:15;15.60;99.90
22288;DHT22;11312;51.464;6.968;2023-07-13T03:51:41;15.60;99.90
22288;DHT22;11312;51.464;6.968;2023-07-13T03:54:07;15.60;99.90
22288;DHT22;11312;51.464;6.968;2023-07-13T03:56:32;15.70;99.90
22288;DHT22;11312;51.464;6.968;2023-07-13T03:58:59;15.60;99.90
22288;DHT22;11312;51.464;6.968;2023-07-13T04:01:25;15.70;99.90
22288;DHT22;11312;51.464;6.968;2023-07-13T04:03:52;15.70;99.90
22288;DHT22;11312;51.464;6.968;2023-07-13T04:06:28;15.70;99.90
22288;DHT22;11312;51.464;6.968;2023-07-13T04:08:56;15.60;99.90
22288;DHT22;11312;51.464;6.968;2023-07-13T04:11:24;15.70;99.90
22288;DHT22;11312;51.464;6.968;2023-07-13T04:13:50;15.70;99.90
22288;DHT22;11312;51.464;6.968;2023-07-13T04:16:17;15.70;99.90
22288;DHT22;11312;51.464;6.968;2023-07-13T04:18:44;15.60;99.90
22288;DHT22;11312;51.464;6.968;2023-07-13T04:21:09;15.60;99.90
22288;DHT22;11312;51.464;6.968;2023-07-13T04:23:36;15.50;99.90
22288;DHT22;11312;51.464;6.968;2023-07-13T04:26:02;15.60;99.90
22288;DHT22;11312;51.464;6.968;2023-07-13T04:28:27;15.60;99.90
22288;DHT22;11312;51.464;6.968;2023-07-13T04:30:54;15.70;99.90
22288;DHT22;11312;51.464;6.968;2023-07-13T04:33:20;15.70;99.90
22288;DHT22;11312;51.464;6.968;2023-07-13T04:35:53;16.60;99.90
22288;DHT22;11312;51.464;6.968;2023-07-13T04:38:22;15.80;99.90
22288;DHT22;11312;51.464;6.968;2023-07-13T04:40:48;15.90;99.90
22288;DHT22;11312;51.464;6.968;2023-07-13T04:43:14;15.70;99.90
22288;DHT22;11312;51.464;6.968;2023-07-13T04:45:39;15.80;99.90
22288;DHT22;11312;51.464;6.968;2023-07-13T04:48:05;15.80;99.90
22288;DHT22;11312;51.464;6.968;2023-07-13T04:50:31;15.90;99.90
22288;DHT22;11312;51.464;6.968;2023-07-13T04:52:56;16.10;99.90
22288;DHT22;11312;51.464;6.968;2023-07-13T04:55:22;16.00;99.90
22288;DHT22;11312;51.464;6.968;2023-07-13T04:57:47;15.90;99.90
22288;DHT22;11312;51.464;6.968;2023-07-13T05:00:14;16.00;99.90
22288;DHT22;11312;51.464;6.968;2023-07-13T05:02:43;16.00;99.90
22288;DHT22;11312;51.464;6.968;2023-07-13T05:05:09;16.00;99.90
22288;DHT22;11312;51.464;6.968;2023-07-13T05:07:35;16.00;99.90
22288;DHT22;11312;51.464;6.968;2023-07-13T05:10:01;15.90;99.90
22288;DHT22;11312;51.464;6.968;2023-07-13T05:12:27;16.00;99.90
22288;DHT22;11312;51.464;6.968;2023-07-13T05:14:52;16.10;99.90
22288;DHT22;11312;51.464;6.968;2023-07-13T05:17:18;16.10;99.90
22288;DHT22;11312;51.464;6.968;2023-07-13T05:19:44;16.10;99.90
22288;DHT22;11312;51.464;6.968;2023-07-13T05:22:09;16.20;99.90
22288;DHT22;11312;51.464;6.968;2023-07-13T05:24:35;16.10;99.90
22288;DHT22;11312;51.464;6.968;2023-07-13T05:27:00;16.20;99.90
22288;DHT22;11312;51.464;6.968;2023-07-13T05:29:26;16.10;99.90
22288;DHT22;11312;51.464;6.968;2023-07-13T05:31:52;16.20;99.90
22288;DHT22;11312;51.464;6.968;2023-07-13T05:34:18;16.20;99.90
22288;DHT22;11312;51.464;6.968;2023-07-13T05:36:43;16.10;99.90
22288;DHT22;11312;51.464;6.968;2023-07-13T05:39:09;16.30;99.90
22288;DHT22;11312;51.464;6.968;2023-07-13T05:41:35;16.30;99.90
22288;DHT22;11312;51.464;6.968;2023-07-13T05:44:01;16.30;99.90
22288;DHT22;11312;51.464;6.968;2023-07-13T05:46:27;16.50;99.90
22288;DHT22;11312;51.464;6.968;2023-07-13T05:48:52;16.60;99.90
22288;DHT22;11312;51.464;6.968;2023-07-13T05:51:18;16.50;99.90
22288;DHT22;11312;51.464;6.968;2023-07-13T05:53:44;16.30;99.90
22288;DHT22;11312;51.464;6.968;2023-07-13T05:56:09;16.50;99.90
22288;DHT22;11312;51.464;6.968;2023-07-13T05:58:35;16.60;99.90
22288;DHT22;11312;51.464;6.968;2023-07-13T06:01:03;16.80;99.90
22288;DHT22;11312;51.464;6.968;2023-07-13T06:03:29;16.90;99.90
22288;DHT22;11312;51.464;6.968;2023-07-13T06:05:55;16.90;99.90
22288;DHT22;11312;51.464;6.968;2023-07-13T06:08:21;16.90;99.90
22288;DHT22;11312;51.464;6.968;2023-07-13T06:10:46;16.90;99.90
22288;DHT22;11312;51.464;6.968;2023-07-13T06:13:12;16.80;99.90
22288;DHT22;11312;51.464;6.968;2023-07-13T06:15:37;16.80;99.90
22288;DHT22;11312;51.464;6.968;2023-07-13T06:18:03;17.00;99.90
22288;DHT22;11312;51.464;6.968;2023-07-13T06:20:30;17.40;99.90
22288;DHT22;11312;51.464;6.968;2023-07-13T06:22:55;17.60;99.90
22288;DHT22;11312;51.464;6.968;2023-07-13T06:25:21;17.80;99.90
22288;DHT22;11312;51.464;6.968;2023-07-13T06:27:47;17.90;99.90
22288;DHT22;11312;51.464;6.968;2023-07-13T06:30:12;18.20;99.90
22288;DHT22;11312;51.464;6.968;2023-07-13T06:32:38;18.20;99.90
22288;DHT22;11312;51.464;6.968;2023-07-13T06:35:04;18.20;99.90
22288;DHT22;11312;51.464;6.968;2023-07-13T06:37:30;18.30;99.90
22288;DHT22;11312;51.464;6.968;2023-07-13T06:39:55;18.00;99.90
22288;DHT22;11312;51.464;6.968;2023-07-13T06:42:21;18.00;99.90
22288;DHT22;11312;51.464;6.968;2023-07-13T06:44:47;18.30;99.90
22288;DHT22;11312;51.464;6.968;2023-07-13T06:47:12;17.90;99.90
22288;DHT22;11312;51.464;6.968;2023-07-13T06:49:38;17.80;99.90
22288;DHT22;11312;51.464;6.968;2023-07-13T06:52:04;17.90;99.90
22288;DHT22;11312;51.464;6.968;2023-07-13T06:54:29;17.90;99.90
22288;DHT22;11312;51.464;6.968;2023-07-13T06:56:55;18.20;99.90
22288;DHT22;11312;51.464;6.968;2023-07-13T06:59:21;18.50;99.90
22288;DHT22;11312;51.464;6.968;2023-07-13T07:01:46;18.60;99.90
22288;DHT22;11312;51.464;6.968;2023-07-13T07:04:12;18.80;99.90
22288;DHT22;11312;51.464;6.968;2023-07-13T07:06:37;19.30;99.90
22288;DHT22;11312;51.464;6.968;2023-07-13T07:09:03;19.50;99.90
22288;DHT22;11312;51.464;6.968;2023-07-13T07:11:28;19.60;99.90
22288;DHT22;11312;51.464;6.968;2023-07-13T07:13:54;19.40;99.90
22288;DHT22;11312;51.464;6.968;2023-07-13T07:16:20;19.10;99.90
22288;DHT22;11312;51.464;6.968;2023-07-13T07:18:46;18.80;99.90
22288;DHT22;11312;51.464;6.968;2023-07-13T07:21:12;18.90;99.90
22288;DHT22;11312;51.464;6.968;2023-07-13T07:23:38;19.00;99.90
22288;DHT22;11312;51.464;6.968;2023-07-13T07:26:04;19.00;99.90
22288;DHT22;11312;51.464;6.968;2023-07-13T07:28:30;19.00;99.90
22288;DHT22;11312;51.464;6.968;2023-07-13T07:30:57;18.70;99.90
22288;DHT22;11312;51.464;6.968;2023-07-13T07:33:24;18.80;99.90
22288;DHT22;11312;51.464;6.968;2023-07-13T07:35:50;18.80;99.90
22288;DHT22;11312;51.464;6.968;2023-07-13T07:38:16;19.10;99.90
22288;DHT22;11312;51.464;6.968;2023-07-13T07:40:41;19.60;99.90
22288;DHT22;11312;51.464;6.968;2023-07-13T07:43:08;20.10;99.90
22288;DHT22;11312;51.464;6.968;2023-07-13T07:45:34;20.00;99.90
22288;DHT22;11312;51.464;6.968;2023-07-13T07:48:00;20.30;99.90
22288;DHT22;11312;51.464;6.968;2023-07-13T07:50:27;20.30;99.90
22288;DHT22;11312;51.464;6.968;2023-07-13T07:52:53;20.70;99.90
22288;DHT22;11312;51.464;6.968;2023-07-13T07:55:19;20.90;99.90
22288;DHT22;11312;51.464;6.968;2023-07-13T07:57:44;20.70;99.90
22288;DHT22;11312;51.464;6.968;2023-07-13T08:00:10;21.10;99.90
22288;DHT22;11312;51.464;6.968;2023-07-13T08:02:36;21.70;99.90
22288;DHT22;11312;51.464;6.968;2023-07-13T08:05:02;21.60;99.90
22288;DHT22;11312;51.464;6.968;2023-07-13T08:07:28;20.70;99.90
22288;DHT22;11312;51.464;6.968;2023-07-13T08:09:55;21.30;99.90
22288;DHT22;11312;51.464;6.968;2023-07-13T08:12:20;21.40;99.90
22288;DHT22;11312;51.464;6.968;2023-07-13T08:14:50;21.50;99.90
22288;DHT22;11312;51.464;6.968;2023-07-13T08:17:19;21.30;99.90
22288;DHT22;11312;51.464;6.968;2023-07-13T08:19:45;21.30;99.90
22288;DHT22;11312;51.464;6.968;2023-07-13T08:22:11;21.30;99.90
22288;DHT22;11312;51.464;6.968;2023-07-13T08:24:37;21.50;99.90
22288;DHT22;11312;51.464;6.968;2023-07-13T08:27:03;21.60;99.90
22288;DHT22;11312;51.464;6.968;2023-07-13T08:29:28;21.10;99.90
22288;DHT22;11312;51.464;6.968;2023-07-13T08:31:57;21.10;1.00
22288;DHT22;11312;51.464;6.968;2023-07-13T08:34:23;21.20;1.00
22288;DHT22;11312;51.464;6.968;2023-07-13T08:36:48;21.50;99.90
22288;DHT22;11312;51.464;6.968;2023-07-13T08:39:14;21.90;99.90
22288;DHT22;11312;51.464;6.968;2023-07-13T08:41:40;21.90;99.90
22288;DHT22;11312;51.464;6.968;2023-07-13T08:44:14;21.60;99.90
22288;DHT22;11312;51.464;6.968;2023-07-13T08:46:45;22.00;99.90
22288;DHT22;11312;51.464;6.968;2023-07-13T08:49:17;21.80;1.00
22288;DHT22;11312;51.464;6.968;2023-07-13T08:51:52;21.40;1.00
22288;DHT22;11312;51.464;6.968;2023-07-13T08:54:45;21.60;1.00
22288;DHT22;11312;51.464;6.968;2023-07-13T08:57:20;21.40;99.90
22288;DHT22;11312;51.464;6.968;2023-07-13T08:59:46;22.10;99.90
22288;DHT22;11312;51.464;6.968;2023-07-13T09:05:14;22.10;99.90
22288;DHT22;11312;51.464;6.968;2023-07-13T09:10:32;21.10;23.80
22288;DHT22;11312;51.464;6.968;2023-07-13T09:15:41;21.80;99.90
22288;DHT22;11312;51.464;6.968;2023-07-13T09:18:14;22.70;1.00
22288;DHT22;11312;51.464;6.968;2023-07-13T09:20:50;22.80;99.90
22288;DHT22;11312;51.464;6.968;2023-07-13T09:23:22;23.50;99.90
22288;DHT22;11312;51.464;6.968;2023-07-13T09:25:53;23.60;99.90
22288;DHT22;11312;51.464;6.968;2023-07-13T09:28:43;24.10;99.90
22288;DHT22;11312;51.464;6.968;2023-07-13T09:31:15;23.80;99.90
22288;DHT22;11312;51.464;6.968;2023-07-13T09:33:41;23.60;99.90
22288;DHT22;11312;51.464;6.968;2023-07-13T09:36:24;23.30;99.90
22288;DHT22;11312;51.464;6.968;2023-07-13T09:39:05;23.70;99.90
22288;DHT22;11312;51.464;6.968;2023-07-13T09:41:49;24.30;99.90
22288;DHT22;11312;51.464;6.968;2023-07-13T09:44:18;23.90;99.90
22288;DHT22;11312;51.464;6.968;2023-07-13T09:46:54;23.20;99.90
22288;DHT22;11312;51.464;6.968;2023-07-13T09:49:25;22.80;99.90
22288;DHT22;11312;51.464;6.968;2023-07-13T09:52:07;23.40;99.90
22288;DHT22;11312;51.464;6.968;2023-07-13T09:54:36;22.50;99.90
22288;DHT22;11312;51.464;6.968;2023-07-13T09:57:08;21.80;99.90
22288;DHT22;11312;51.464;6.968;2023-07-13T09:59:41;22.20;99.90
22288;DHT22;11312;51.464;6.968;2023-07-13T10:02:29;23.10;99.90
22288;DHT22;11312;51.464;6.968;2023-07-13T10:05:04;23.20;99.90
22288;DHT22;11312;51.464;6.968;2023-07-13T10:07:31;23.00;99.90
22288;DHT22;11312;51.464;6.968;2023-07-13T10:09:59;22.50;99.90
22288;DHT22;11312;51.464;6.968;2023-07-13T10:12:27;22.10;99.90
22288;DHT22;11312;51.464;6.968;2023-07-13T10:14:55;21.40;99.90
22288;DHT22;11312;51.464;6.968;2023-07-13T10:17:30;21.50;99.90
22288;DHT22;11312;51.464;6.968;2023-07-13T10:20:03;21.20;99.90
22288;DHT22;11312;51.464;6.968;2023-07-13T10:25:17;21.10;99.90
22288;DHT22;11312;51.464;6.968;2023-07-13T10:27:44;20.90;99.90
22288;DHT22;11312;51.464;6.968;2023-07-13T10:30:30;21.00;99.90
22288;DHT22;11312;51.464;6.968;2023-07-13T10:33:02;21.40;99.90
22288;DHT22;11312;51.464;6.968;2023-07-13T10:35:29;22.70;99.90
22288;DHT22;11312;51.464;6.968;2023-07-13T10:38:03;22.90;99.90
22288;DHT22;11312;51.464;6.968;2023-07-13T10:40:41;22.50;99.90
22288;DHT22;11312;51.464;6.968;2023-07-13T10:43:18;22.10;99.90
22288;DHT22;11312;51.464;6.968;2023-07-13T10:45:46;21.70;99.90
22288;DHT22;11312;51.464;6.968;2023-07-13T10:48:16;21.50;99.90
22288;DHT22;11312;51.464;6.968;2023-07-13T10:50:45;21.60;99.90
22288;DHT22;11312;51.464;6.968;2023-07-13T10:53:30;22.00;99.90
22288;DHT22;11312;51.464;6.968;2023-07-13T10:58:41;23.80;99.90
22288;DHT22;11312;51.464;6.968;2023-07-13T11:06:36;24.00;99.90
22288;DHT22;11312;51.464;6.968;2023-07-13T11:09:36;24.50;99.90
22288;DHT22;11312;51.464;6.968;2023-07-13T11:12:48;24.80;99.90
22288;DHT22;11312;51.464;6.968;2023-07-13T11:39:37;24.70;99.90
22288;DHT22;11312;51.464;6.968;2023-07-13T11:42:07;24.70;99.90
22288;DHT22;11312;51.464;6.968;2023-07-13T11:44:35;24.20;99.90
22288;DHT22;11312;51.464;6.968;2023-07-13T11:47:14;24.70;99.90
22288;DHT22;11312;51.464;6.968;2023-07-13T11:49:44;25.00;99.90
22288;DHT22;11312;51.464;6.968;2023-07-13T11:52:15;24.40;99.90
22288;DHT22;11312;51.464;6.968;2023-07-13T11:54:47;24.50;99.90
22288;DHT22;11312;51.464;6.968;2023-07-13T11:57:32;24.70;99.90
22288;DHT22;11312;51.464;6.968;2023-07-13T12:00:02;25.10;99.90
22288;DHT22;11312;51.464;6.968;2023-07-13T12:02:29;25.40;99.90
22288;DHT22;11312;51.464;6.968;2023-07-13T12:04:57;25.40;99.90
22288;DHT22;11312;51.464;6.968;2023-07-13T12:07:23;24.80;99.90
22288;DHT22;11312;51.464;6.968;2023-07-13T12:09:48;24.50;99.90
22288;DHT22;11312;51.464;6.968;2023-07-13T12:12:22;24.20;99.90
22288;DHT22;11312;51.464;6.968;2023-07-13T12:14:51;24.60;99.90
22288;DHT22;11312;51.464;6.968;2023-07-13T12:17:23;25.10;99.90
22288;DHT22;11312;51.464;6.968;2023-07-13T12:19:51;25.60;99.90
22288;DHT22;11312;51.464;6.968;2023-07-13T12:22:19;25.80;99.90
22288;DHT22;11312;51.464;6.968;2023-07-13T12:24:46;25.60;99.90
22288;DHT22;11312;51.464;6.968;2023-07-13T12:27:20;25.30;99.90
22288;DHT22;11312;51.464;6.968;2023-07-13T12:30:02;25.40;99.90
22288;DHT22;11312;51.464;6.968;2023-07-13T12:32:31;25.30;99.90
22288;DHT22;11312;51.464;6.968;2023-07-13T12:35:17;25.30;99.90
22288;DHT22;11312;51.464;6.968;2023-07-13T12:37:46;25.60;99.90
22288;DHT22;11312;51.464;6.968;2023-07-13T12:40:19;25.80;99.90
22288;DHT22;11312;51.464;6.968;2023-07-13T12:42:49;25.20;99.90
22288;DHT22;11312;51.464;6.968;2023-07-13T12:45:22;25.30;99.90
22288;DHT22;11312;51.464;6.968;2023-07-13T12:47:53;25.80;99.90
22288;DHT22;11312;51.464;6.968;2023-07-13T12:50:22;25.10;99.90
22288;DHT22;11312;51.464;6.968;2023-07-13T12:52:53;24.70;99.90
22288;DHT22;11312;51.464;6.968;2023-07-13T12:55:20;24.40;99.90
22288;DHT22;11312;51.464;6.968;2023-07-13T12:57:52;24.20;99.90
22288;DHT22;11312;51.464;6.968;2023-07-13T13:00:27;23.90;99.90
22288;DHT22;11312;51.464;6.968;2023-07-13T13:02:56;23.60;99.90
22288;DHT22;11312;51.464;6.968;2023-07-13T13:05:22;23.20;99.90
22288;DHT22;11312;51.464;6.968;2023-07-13T13:07:50;23.40;99.90
22288;DHT22;11312;51.464;6.968;2023-07-13T13:10:16;23.60;99.90
22288;DHT22;11312;51.464;6.968;2023-07-13T13:12:41;23.40;99.90
22288;DHT22;11312;51.464;6.968;2023-07-13T13:15:11;23.40;99.90
22288;DHT22;11312;51.464;6.968;2023-07-13T13:17:40;22.90;99.90
22288;DHT22;11312;51.464;6.968;2023-07-13T13:20:25;23.00;99.90
22288;DHT22;11312;51.464;6.968;2023-07-13T13:22:52;22.70;99.90
22288;DHT22;11312;51.464;6.968;2023-07-13T13:25:19;22.70;99.90
22288;DHT22;11312;51.464;6.968;2023-07-13T13:27:46;22.80;99.90
22288;DHT22;11312;51.464;6.968;2023-07-13T13:30:16;23.00;99.90
22288;DHT22;11312;51.464;6.968;2023-07-13T13:32:45;22.80;99.90
22288;DHT22;11312;51.464;6.968;2023-07-13T13:35:19;23.10;99.90
22288;DHT22;11312;51.464;6.968;2023-07-13T13:37:46;23.30;99.90
22288;DHT22;11312;51.464;6.968;2023-07-13T13:40:18;23.40;99.90
22288;DHT22;11312;51.464;6.968;2023-07-13T13:42:45;23.60;99.90
22288;DHT22;11312;51.464;6.968;2023-07-13T13:45:11;23.50;99.90
22288;DHT22;11312;51.464;6.968;2023-07-13T13:47:38;23.60;99.90
22288;DHT22;11312;51.464;6.968;2023-07-13T13:50:20;23.70;99.90
22288;DHT22;11312;51.464;6.968;2023-07-13T13:52:47;23.40;99.90
22288;DHT22;11312;51.464;6.968;2023-07-13T13:55:19;23.70;99.90
22288;DHT22;11312;51.464;6.968;2023-07-13T13:57:46;23.80;99.90
22288;DHT22;11312;51.464;6.968;2023-07-13T14:00:13;23.90;99.90
22288;DHT22;11312;51.464;6.968;2023-07-13T14:02:41;23.80;99.90
22288;DHT22;11312;51.464;6.968;2023-07-13T14:05:12;23.40;99.90
22288;DHT22;11312;51.464;6.968;2023-07-13T14:07:38;23.40;99.90
22288;DHT22;11312;51.464;6.968;2023-07-13T14:10:14;23.10;99.90
22288;DHT22;11312;51.464;6.968;2023-07-13T14:12:44;22.80;99.90
22288;DHT22;11312;51.464;6.968;2023-07-13T14:15:25;22.70;99.90
22288;DHT22;11312;51.464;6.968;2023-07-13T14:17:52;22.80;99.90
22288;DHT22;11312;51.464;6.968;2023-07-13T14:20:20;22.60;99.90
22288;DHT22;11312;51.464;6.968;2023-07-13T14:22:46;22.70;99.90
22288;DHT22;11312;51.464;6.968;2023-07-13T14:25:16;22.70;99.90
22288;DHT22;11312;51.464;6.968;2023-07-13T14:27:43;22.90;99.90
22288;DHT22;11312;51.464;6.968;2023-07-13T14:32:38;22.40;99.90
22288;DHT22;11312;51.464;6.968;2023-07-13T14:35:04;22.40;99.90
22288;DHT22;11312;51.464;6.968;2023-07-13T14:37:30;22.70;99.90
22288;DHT22;11312;51.464;6.968;2023-07-13T14:39:56;22.60;99.90
22288;DHT22;11312;51.464;6.968;2023-07-13T14:42:21;22.80;99.90
22288;DHT22;11312;51.464;6.968;2023-07-13T14:44:47;22.60;99.90
22288;DHT22;11312;51.464;6.968;2023-07-13T14:47:12;22.60;99.90
22288;DHT22;11312;51.464;6.968;2023-07-13T14:49:40;22.50;99.90
22288;DHT22;11312;51.464;6.968;2023-07-13T14:52:16;22.90;99.90
22288;DHT22;11312;51.464;6.968;2023-07-13T14:54:43;23.10;99.90
22288;DHT22;11312;51.464;6.968;2023-07-13T14:57:14;22.80;99.90
22288;DHT22;11312;51.464;6.968;2023-07-13T14:59:41;23.30;99.90
22288;DHT22;11312;51.464;6.968;2023-07-13T15:02:28;23.50;99.90
22288;DHT22;11312;51.464;6.968;2023-07-13T15:04:55;23.60;99.90
22288;DHT22;11312;51.464;6.968;2023-07-13T15:07:20;23.60;99.90
22288;DHT22;11312;51.464;6.968;2023-07-13T15:09:47;23.30;99.90
22288;DHT22;11312;51.464;6.968;2023-07-13T15:12:13;23.20;99.90
22288;DHT22;11312;51.464;6.968;2023-07-13T15:14:39;23.30;99.90
22288;DHT22;11312;51.464;6.968;2023-07-13T15:17:08;22.70;99.90
22288;DHT22;11312;51.464;6.968;2023-07-13T15:19:44;22.60;99.90
22288;DHT22;11312;51.464;6.968;2023-07-13T15:22:10;22.50;99.90
22288;DHT22;11312;51.464;6.968;2023-07-13T15:24:36;22.90;99.90
22288;DHT22;11312;51.464;6.968;2023-07-13T15:27:04;22.50;99.90
22288;DHT22;11312;51.464;6.968;2023-07-13T15:29:29;22.70;99.90
22288;DHT22;11312;51.464;6.968;2023-07-13T15:31:55;22.60;99.90
22288;DHT22;11312;51.464;6.968;2023-07-13T15:34:24;22.50;99.90
22288;DHT22;11312;51.464;6.968;2023-07-13T15:36:51;22.40;99.90
22288;DHT22;11312;51.464;6.968;2023-07-13T15:39:17;22.10;99.90
22288;DHT22;11312;51.464;6.968;2023-07-13T15:41:44;21.80;99.90
22288;DHT22;11312;51.464;6.968;2023-07-13T15:44:26;22.00;99.90
22288;DHT22;11312;51.464;6.968;2023-07-13T15:46:53;22.10;99.90
22288;DHT22;11312;51.464;6.968;2023-07-13T15:49:19;21.90;99.90
22288;DHT22;11312;51.464;6.968;2023-07-13T15:51:46;22.00;99.90
22288;DHT22;11312;51.464;6.968;2023-07-13T15:54:15;21.90;99.90
22288;DHT22;11312;51.464;6.968;2023-07-13T15:56:42;21.80;99.90
22288;DHT22;11312;51.464;6.968;2023-07-13T15:59:11;22.10;99.90
22288;DHT22;11312;51.464;6.968;2023-07-13T16:01:38;22.00;99.90
22288;DHT22;11312;51.464;6.968;2023-07-13T16:04:04;21.70;99.90
22288;DHT22;11312;51.464;6.968;2023-07-13T16:06:35;21.80;99.90
22288;DHT22;11312;51.464;6.968;2023-07-13T16:09:03;21.70;99.90
22288;DHT22;11312;51.464;6.968;2023-07-13T16:11:37;22.00;99.90
22288;DHT22;11312;51.464;6.968;2023-07-13T16:14:03;22.00;99.90
22288;DHT22;11312;51.464;6.968;2023-07-13T16:16:31;21.80;99.90
22288;DHT22;11312;51.464;6.968;2023-07-13T16:18:58;21.50;99.90
22288;DHT22;11312;51.464;6.968;2023-07-13T16:21:27;21.70;99.90
22288;DHT22;11312;51.464;6.968;2023-07-13T16:23:54;21.90;99.90
22288;DHT22;11312;51.464;6.968;2023-07-13T16:26:27;21.80;99.90
22288;DHT22;11312;51.464;6.968;2023-07-13T16:28:54;22.00;99.90